Pays
Station

 

Conditions  météo  pour  Kairouan  -  Tunisie    Tunisie

  
27 °C
    
 
 

METAR pour Kairouan :

DTTK 180000Z AUTO 00000KT NCD 27/19 Q1016

 

Voici le bulletin pour Kairouan - Tunisie.
 
Le bulletin a été fait il y a 44 minutes, à 00:00 UTC .
Le vent était calme.
 
La température était de 27 °C, avec un point de rosée à 19 °C.
La température ressentie était de 28 °C.
 
La pression atmosphérique était de 1016 hPa.
L'humidité relative était de 61.6%.
 

 
 
 

Pays :   A   B   C   D   E   F   G   H   I   J   K   L   M   N   O   P   Q   R   S   T   U   V   W   Y   Z

 

Partenaires :  Info Météo avec Met'info
Météo Marine avec MeteoMarine.net
Infos Site  |  Infos Légales  |  Crédits  |  Confidentialité
Contactez-nous  |  Ajouter aux favoris
© 2013-2018 METAR - Tous droits réservés